Time;durP1;ratioP1;P1;durP2;ratioP2;P2;SDS_P1;SDS_P2;PMS_P1;PMS_P2;Temp;Humidity;BMP_temperature;BMP_pressure;BME280_temperature;BME280_humidity;BME280_pressure;Samples;Min_cycle;Max_cycle;Signal;HPM_P1;HPM_P2
2022/03/13 13:29:44;;;;;;;6.45;4.80;;;21.60;99.90;;;;;;6870961;19;9973747;-46
2022/03/13 13:32:32;;;;;;;7.75;4.38;;;21.10;99.90;;;;;;7377468;19;20243;-41
2022/03/13 13:41:29;;;;;;;7.13;4.68;;;22.00;99.90;21.50;93753.00;;;;6909643;19;9952680;-43
2022/03/13 13:44:03;;;;;;;5.82;4.90;;;21.00;99.90;21.30;93773.00;;;;7347070;19;1005408;-44
2022/03/13 13:49:55;;;;;;;6.47;4.22;;;;;23.40;93817.00;;;;6813117;19;9986793;-40
2022/03/13 13:52:30;;;;;;;4.90;3.70;;;;;23.70;93814.00;;;;7426306;19;20140;-40
2022/03/13 13:58:35;;;;;;;20.88;16.85;;;;;21.00;93851.00;;;;6850175;19;11583979;-80
2022/03/13 14:01:31;;;;;;;21.88;16.65;;;;;20.70;93860.00;;;;7443331;19;20120;-80
2022/03/13 14:04:02;;;;;;;17.55;14.52;;;;;21.30;93851.00;;;;7417640;19;20183;-78
2022/03/13 14:06:41;;;;;;;18.55;15.35;;;;;20.50;93852.00;;;;7437904;19;20145;-78
2022/03/13 14:09:09;;;;;;;20.23;15.00;;;;;19.80;93866.00;;;;7437285;19;20156;-78
2022/03/13 14:11:44;;;;;;;21.73;14.82;;;;;18.40;93868.00;;;;7438259;19;20164;-78
2022/03/13 14:14:11;;;;;;;20.15;15.15;;;;;17.50;93869.00;;;;7438633;19;20136;-79
2022/03/13 14:16:39;;;;;;;20.23;15.07;;;;;17.00;93867.00;;;;7434153;19;20141;-79
2022/03/13 14:19:24;;;;;;;18.38;14.48;;;;;16.40;93855.00;;;;7437549;19;20132;-80
2022/03/13 14:21:52;;;;;;;18.38;13.35;;;;;16.00;93852.00;;;;7436636;19;20128;-80
2022/03/13 14:24:26;;;;;;;18.45;13.90;;;15.40;99.90;16.10;93832.00;;;;7441495;19;20176;-81
2022/03/13 14:26:54;;;;;;;20.27;15.05;;;15.20;99.90;16.50;93850.00;;;;7436283;19;20448;-80
2022/03/13 14:29:22;;;;;;;19.25;13.82;;;15.30;99.90;16.80;93852.00;;;;7438150;19;20136;-80
2022/03/13 14:31:59;;;;;;;17.00;13.55;;;15.60;99.90;16.20;93842.00;;;;7435163;19;20132;-80
2022/03/13 14:34:27;;;;;;;15.50;12.23;;;15.60;99.90;15.80;93840.00;;;;7435645;19;20204;-81
2022/03/13 14:36:58;;;;;;;16.02;11.90;;;15.50;99.90;15.80;93848.00;;;;7434739;19;20140;-81
2022/03/13 14:39:51;;;;;;;16.52;12.73;;;15.10;99.90;15.40;93853.00;;;;7440792;19;20132;-80
2022/03/13 14:42:19;;;;;;;19.95;13.20;;;14.80;99.90;15.30;93861.00;;;;7437765;19;20143;-79
2022/03/13 14:44:53;;;;;;;17.15;12.98;;;14.50;99.90;15.40;93841.00;;;;7439721;19;20139;-80
2022/03/13 14:47:20;;;;;;;15.18;10.95;;;14.50;99.90;15.50;93822.00;;;;7435637;19;20671;-80
2022/03/13 14:50:10;;;;;;;17.00;11.23;;;14.50;99.90;15.70;93841.00;;;;7436624;19;20169;-79
2022/03/13 14:52:44;;;;;;;16.25;12.13;;;14.40;99.90;16.10;93829.00;;;;7435457;19;20508;-79
2022/03/13 14:55:14;;;;;;;18.48;12.13;;;14.80;99.90;16.90;93831.00;;;;7433509;19;20145;-80
2022/03/13 14:57:42;;;;;;;19.08;12.95;;;15.30;99.90;17.30;93842.00;;;;7426295;19;20167;-80
2022/03/13 15:00:16;;;;;;;17.98;12.48;;;15.80;99.90;17.20;93822.00;;;;7429451;19;20144;-80
2022/03/13 15:02:44;;;;;;;14.85;11.40;;;16.10;99.90;16.40;93852.00;;;;7432087;19;20124;-79
2022/03/13 15:05:12;;;;;;;13.88;10.30;;;16.00;99.90;16.80;93809.00;;;;7437556;19;20145;-81
2022/03/13 15:07:46;;;;;;;17.30;12.23;;;15.80;99.90;16.20;93847.00;;;;7425182;19;20168;-82
2022/03/13 15:10:13;;;;;;;13.95;10.93;;;15.60;99.90;15.70;93825.00;;;;7408723;19;20137;-81
2022/03/13 15:12:41;;;;;;;15.60;11.45;;;15.20;99.90;15.50;93815.00;;;;7407999;19;20133;-80
2022/03/13 15:15:16;;;;;;;18.80;10.73;;;14.80;99.90;15.10;93845.00;;;;7410101;19;20129;-80
2022/03/13 15:17:43;;;;;;;17.83;11.65;;;14.50;99.90;15.30;93837.00;;;;7405384;19;20643;-80
2022/03/13 15:20:11;;;;;;;16.98;11.07;;;14.50;99.90;15.50;93838.00;;;;7408188;19;20623;-80
2022/03/13 15:22:45;;;;;;;15.45;11.30;;;14.50;99.90;16.20;93818.00;;;;7410844;19;20157;-81
2022/03/13 15:25:12;;;;;;;16.33;11.77;;;14.80;99.90;17.00;93807.00;;;;7407629;19;20169;-79
2022/03/13 15:27:41;;;;;;;16.75;12.95;;;;;17.80;93825.00;;;;7405384;19;20139;-78
2022/03/13 15:30:21;;;;;;;19.33;13.98;;;;;18.00;93827.00;;;;7400217;19;20149;-79
2022/03/13 15:32:57;;;;;;;19.88;14.13;;;;;18.60;93826.00;;;;7403544;19;20136;-78
2022/03/13 15:36:21;;;;;;;18.45;13.90;;;;;18.60;93829.00;;;;7401708;19;20133;-79
2022/03/13 15:38:49;;;;;;;18.73;13.95;;;;;18.00;93832.00;;;;7401174;19;20602;-79
2022/03/13 15:41:22;;;;;;;19.13;13.43;;;;;17.60;93831.00;;;;7406178;19;20490;-79
2022/03/13 15:43:50;;;;;;;19.05;13.98;;;;;17.30;93841.00;;;;7405005;19;20148;-78
2022/03/13 15:46:18;;;;;;;18.55;13.23;;;16.60;99.90;16.70;93836.00;;;;7406464;19;20117;-77
2022/03/13 15:48:52;;;;;;;20.13;14.30;;;16.50;99.90;16.70;93838.00;;;;7407197;19;20136;-79
2022/03/13 15:51:21;;;;;;;21.88;14.18;;;16.20;99.90;16.50;93813.00;;;;7408249;19;20197;-80
2022/03/13 15:53:48;;;;;;;21.70;14.45;;;16.10;99.90;16.40;93834.00;;;;7409510;19;20141;-79
2022/03/13 15:56:36;;;;;;;21.02;15.20;;;15.90;99.90;16.30;93827.00;;;;7403201;19;20248;-78
2022/03/13 15:59:10;;;;;;;22.45;15.20;;;16.00;99.90;16.30;93791.00;;;;7403966;19;20133;-78
2022/03/13 16:01:44;;;;;;;22.00;14.65;;;15.80;99.90;16.30;93821.00;;;;7403494;19;20145;-78
2022/03/13 16:04:12;;;;;;;19.63;13.75;;;15.60;99.90;16.00;93827.00;;;;7403873;19;20145;-79
2022/03/13 16:06:40;;;;;;;19.13;14.02;;;15.50;99.90;15.60;93800.00;;;;7403943;19;20197;-79
2022/03/13 16:09:14;;;;;;;21.88;15.05;;;15.30;1.00;15.20;93820.00;;;;7403150;19;20132;-78
2022/03/13 16:11:43;;;;;;;22.08;15.30;;;14.70;99.90;14.50;93815.00;;;;7399633;19;20161;-78
2022/03/13 16:14:10;;;;;;;22.90;15.25;;;14.20;99.90;14.00;93788.00;;;;7400454;19;20557;-78
2022/03/13 16:16:44;;;;;;;21.92;15.45;;;13.60;99.90;13.60;93826.00;;;;7397770;19;20638;-79
2022/03/13 16:19:14;;;;;;;23.27;15.52;;;13.00;99.90;13.20;93836.00;;;;7397965;19;20129;-78
2022/03/13 16:21:41;;;;;;;21.98;14.77;;;12.70;1.00;13.00;93840.00;;;;7400042;19;20140;-78
2022/03/13 16:24:15;;;;;;;23.10;16.25;;;12.30;99.90;12.80;93797.00;;;;7401759;19;20137;-78
2022/03/13 16:26:44;;;;;;;21.73;14.95;;;12.00;99.90;12.50;93800.00;;;;7399347;19;20169;-78
2022/03/13 16:29:13;;;;;;;23.50;15.80;;;11.80;99.90;12.40;93802.00;;;;7401323;19;20145;-78
2022/03/13 16:31:47;;;;;;;22.15;15.85;;;11.60;99.90;12.30;93827.00;;;;7401536;19;20144;-79
2022/03/13 16:34:15;;;;;;;27.45;15.27;;;11.30;99.90;12.20;93816.00;;;;7400094;19;20183;-77
2022/03/13 16:36:43;;;;;;;25.25;17.35;;;11.20;99.90;12.20;93811.00;;;;7398598;19;20141;-79
2022/03/13 16:39:17;;;;;;;25.90;16.02;;;11.00;99.90;11.70;93807.00;;;;7399360;19;20156;-78
2022/03/13 16:41:46;;;;;;;23.00;15.65;;;10.80;99.90;11.70;93826.00;;;;7401335;19;20121;-78
2022/03/13 16:44:14;;;;;;;23.10;16.40;;;10.60;99.90;11.70;93835.00;;;;7401627;19;20504;-78
2022/03/13 16:46:48;;;;;;;25.13;16.90;;;10.50;99.90;11.20;93803.00;;;;7400808;19;20157;-78
2022/03/13 16:49:15;;;;;;;23.77;15.77;;;10.40;99.90;11.00;93842.00;;;;7401374;19;20132;-79
2022/03/13 16:51:43;;;;;;;23.52;15.10;;;10.10;99.90;10.80;93810.00;;;;7402979;19;20121;-78
2022/03/13 16:54:20;;;;;;;19.20;13.07;;;10.00;99.90;10.30;93837.00;;;;7401910;19;20576;-79
2022/03/13 16:57:04;;;;;;;19.13;13.73;;;9.70;99.90;9.90;93810.00;;;;7401352;19;20623;-78
2022/03/13 16:59:49;;;;;;;21.40;14.53;;;9.40;1.00;9.70;93813.00;;;;7401057;19;20129;-79
2022/03/13 17:02:20;;;;;;;22.77;14.23;;;9.10;1.00;9.70;93844.00;;;;7400527;19;20223;-79
2022/03/13 17:04:54;;;;;;;23.57;15.57;;;8.80;1.00;9.60;93821.00;;;;7400790;19;20132;-78
2022/03/13 17:07:22;;;;;;;22.80;16.37;;;8.60;1.00;9.50;93797.00;;;;7393243;19;20226;-78
2022/03/13 17:09:50;;;;;;;23.00;15.47;;;8.50;1.00;9.40;93833.00;;;;7398905;19;20148;-79
2022/03/13 17:12:24;;;;;;;25.30;15.33;;;8.30;1.00;9.30;93835.00;;;;7398921;19;20140;-79
2022/03/13 17:14:53;;;;;;;20.97;14.97;;;8.20;1.00;9.20;93818.00;;;;7400335;19;20133;-80
2022/03/13 17:17:21;;;;;;;21.33;14.40;;;8.10;1.00;9.20;93832.00;;;;7397431;19;20855;-79
2022/03/13 17:19:55;;;;;;;20.17;13.93;;;8.00;1.00;9.00;93805.00;;;;7395843;19;20161;-79
2022/03/13 17:22:23;;;;;;;20.70;13.63;;;7.90;1.00;8.80;93817.00;;;;7396187;19;20735;-79
2022/03/13 17:24:50;;;;;;;28.10;14.80;;;7.80;1.00;8.60;93826.00;;;;7394585;19;20154;-78
2022/03/13 17:27:25;;;;;;;33.03;19.17;;;7.70;1.00;8.60;93830.00;;;;7392971;19;20147;-78
2022/03/13 17:29:53;;;;;;;25.40;16.73;;;7.60;1.00;8.60;93811.00;;;;7394301;19;20141;-80
2022/03/13 17:32:21;;;;;;;20.20;14.53;;;7.50;1.00;8.50;93832.00;;;;7395697;19;20140;-80
2022/03/13 17:34:55;;;;;;;24.30;16.10;;;7.30;1.00;8.40;93832.00;;;;7394552;19;20161;-79
2022/03/13 17:37:23;;;;;;;22.37;14.63;;;7.30;1.00;8.30;93816.00;;;;7391573;19;20124;-79
2022/03/13 17:39:52;;;;;;;26.90;15.63;;;7.20;1.00;8.20;93808.00;;;;7394251;19;20129;-78
2022/03/13 17:42:27;;;;;;;23.80;14.67;;;7.10;1.00;8.20;93805.00;;;;7391616;19;20144;-79
2022/03/13 17:44:55;;;;;;;24.33;14.43;;;7.10;1.00;8.10;93815.00;;;;7390018;19;20137;-79
2022/03/13 17:47:22;;;;;;;25.83;15.43;;;7.00;1.00;8.00;93851.00;;;;7388613;19;20137;-78
2022/03/13 17:49:56;;;;;;;22.37;15.07;;;7.00;1.00;8.00;93822.00;;;;7397413;19;20149;-80
2022/03/13 17:52:23;;;;;;;25.13;15.23;;;6.90;1.00;8.00;93841.00;;;;7394402;19;20636;-79
2022/03/13 17:54:52;;;;;;;23.77;14.43;;;6.90;1.00;8.00;93842.00;;;;7396698;19;20592;-79
2022/03/13 17:57:33;;;;;;;21.80;14.80;;;6.90;1.00;8.40;93822.00;;;;7394172;19;20165;-81
2022/03/13 18:00:00;;;;;;;22.57;15.43;;;7.10;1.00;8.50;93807.00;;;;7392271;19;20135;-80
2022/03/13 18:02:34;;;;;;;24.07;15.17;;;7.20;1.00;8.50;93810.00;;;;7391341;19;20192;-79
2022/03/13 18:05:01;;;;;;;24.60;15.90;;;7.20;1.00;8.50;93827.00;;;;7393714;19;20196;-78
2022/03/13 18:07:29;;;;;;;23.73;15.27;;;7.30;1.00;8.40;93820.00;;;;7396826;19;20155;-80
2022/03/13 18:10:05;;;;;;;25.03;15.50;;;7.30;1.00;8.40;93844.00;;;;7397168;19;20128;-79
2022/03/13 18:12:32;;;;;;;23.60;15.30;;;7.20;1.00;8.40;93834.00;;;;7394455;19;20141;-80
2022/03/13 18:14:59;;;;;;;24.93;15.77;;;7.30;1.00;8.70;93843.00;;;;7395587;19;20146;-80
2022/03/13 18:17:34;;;;;;;26.13;16.97;;;7.40;1.00;8.50;93820.00;;;;7395003;19;20197;-80
2022/03/13 18:20:02;;;;;;;26.57;16.17;;;7.50;1.00;8.40;93821.00;;;;7390952;19;20140;-79
2022/03/13 18:22:29;;;;;;;22.17;15.20;;;7.40;1.00;8.30;93814.00;;;;7387718;19;21219;-79
2022/03/13 18:25:08;;;;;;;26.60;16.63;;;7.30;1.00;8.30;93821.00;;;;7387284;19;20179;-79
2022/03/13 18:27:35;;;;;;;23.37;14.93;;;7.20;1.00;8.20;93812.00;;;;7394278;19;20137;-81
2022/03/13 18:30:20;;;;;;;22.43;15.40;;;7.20;1.00;8.20;93814.00;;;;7401580;19;20157;-81
2022/03/13 18:32:54;;;;;;;23.70;15.27;;;7.10;1.00;8.10;93813.00;;;;7399466;19;20153;-81
2022/03/13 18:35:26;;;;;;;28.77;17.43;;;7.10;1.00;7.90;93823.00;;;;7401636;19;20135;-81
2022/03/13 18:37:54;;;;;;;27.80;16.40;;;6.90;1.00;7.80;93830.00;;;;7396825;19;20137;-80
2022/03/13 18:40:28;;;;;;;26.23;15.90;;;6.80;1.00;8.00;93842.00;;;;7403195;19;20136;-82
2022/03/13 18:42:56;;;;;;;28.33;16.07;;;6.80;1.00;7.80;93825.00;;;;7408703;19;20133;-82
2022/03/13 18:45:24;;;;;;;25.53;16.37;;;6.70;1.00;7.90;93817.00;;;;7413696;19;20132;-82
2022/03/13 18:47:58;;;;;;;23.30;16.30;;;6.70;1.00;7.90;93813.00;;;;7412215;19;20176;-79
2022/03/13 18:50:25;;;;;;;26.67;16.47;;;6.70;1.00;7.90;93819.00;;;;7409336;19;20157;-81
2022/03/13 18:52:58;;;;;;;23.57;15.10;;;6.70;1.00;7.80;93817.00;;;;7408394;19;20165;-79
2022/03/13 18:55:33;;;;;;;22.37;15.67;;;6.70;1.00;7.90;93845.00;;;;7411110;19;20486;-81
2022/03/13 18:58:07;;;;;;;24.67;16.37;;;6.70;1.00;7.80;93823.00;;;;7406205;19;20164;-82
2022/03/13 19:00:42;;;;;;;29.17;15.50;;;6.80;1.00;7.90;93857.00;;;;7405424;19;20143;-80
2022/03/13 19:03:10;;;;;;;25.30;16.17;;;6.80;1.00;7.80;93876.00;;;;7405703;19;20136;-79
2022/03/13 19:05:38;;;;;;;27.23;16.63;;;6.80;1.00;8.20;93873.00;;;;7405800;19;20141;-80
2022/03/13 19:08:13;;;;;;;27.80;20.53;;;6.90;1.00;8.20;93858.00;;;;7405544;19;20156;-80
2022/03/13 19:10:40;;;;;;;26.50;17.07;;;6.90;1.00;8.40;93865.00;;;;7402964;19;20136;-80
2022/03/13 19:13:11;;;;;;;23.03;16.23;;;7.10;1.00;8.40;93858.00;;;;7402454;19;20164;-81
2022/03/13 19:15:47;;;;;;;23.40;16.53;;;7.20;1.00;8.40;93879.00;;;;7402604;19;20125;-78
2022/03/13 19:18:15;;;;;;;23.27;16.73;;;7.20;1.00;8.20;93856.00;;;;7399173;19;20128;-79
2022/03/13 19:20:42;;;;;;;27.17;17.30;;;7.10;1.00;8.10;93872.00;;;;7396411;19;20143;-80
2022/03/13 19:23:16;;;;;;;32.33;20.87;;;7.10;1.00;8.00;93882.00;;;;7397329;19;20148;-78
2022/03/13 19:25:43;;;;;;;36.30;22.20;;;7.00;1.00;8.10;93846.00;;;;7395143;19;20179;-79
2022/03/13 19:28:11;;;;;;;24.83;17.00;;;6.90;1.00;8.40;93845.00;;;;7395548;19;20141;-79
2022/03/13 19:30:45;;;;;;;27.13;18.27;;;7.10;1.00;8.60;93868.00;;;;7396310;19;20203;-77
2022/03/13 19:33:13;;;;;;;24.27;16.47;;;7.20;1.00;8.80;93878.00;;;;7393076;19;20165;-79
2022/03/13 19:35:40;;;;;;;30.77;17.47;;;7.40;1.00;8.80;93873.00;;;;7400219;19;20132;-80
2022/03/13 19:38:18;;;;;;;23.93;14.50;;;7.50;1.00;8.90;93892.00;;;;7399494;19;20133;-81
2022/03/13 19:40:45;;;;;;;22.27;13.70;;;7.60;1.00;8.90;93873.00;;;;7399838;19;20587;-80
2022/03/13 19:43:12;;;;;;;24.47;15.10;;;7.70;1.00;8.90;93888.00;;;;7398314;19;20161;-80
2022/03/13 19:45:46;;;;;;;21.67;14.00;;;7.80;1.00;8.70;93880.00;;;;7401182;19;20193;-79
2022/03/13 19:48:15;;;;;;;25.77;15.80;;;7.70;1.00;8.70;93899.00;;;;7401189;19;20129;-80
2022/03/13 19:50:42;;;;;;;21.80;14.27;;;7.70;1.00;8.70;93858.00;;;;7399061;19;20129;-81
2022/03/13 19:53:16;;;;;;;24.17;15.60;;;7.70;1.00;8.60;93872.00;;;;7408394;19;20132;-81
2022/03/13 19:55:43;;;;;;;21.60;14.57;;;7.60;1.00;8.70;93891.00;;;;7411032;19;20592;-81
2022/03/13 19:58:11;;;;;;;26.23;15.57;;;7.60;1.00;8.70;93898.00;;;;7406761;19;20152;-81
2022/03/13 20:00:51;;;;;;;20.63;13.90;;;7.60;1.00;8.80;93910.00;;;;7406748;19;20150;-81
2022/03/13 20:03:19;;;;;;;20.00;13.43;;;7.70;1.00;9.10;93892.00;;;;7396434;19;20138;-78
2022/03/13 20:05:54;;;;;;;17.47;12.43;;;7.80;1.00;9.10;93906.00;;;;7348459;19;20273;-77
2022/03/13 20:08:22;;;;;;;21.67;12.37;;;7.90;1.00;9.20;93941.00;;;;7390736;19;20129;-78
2022/03/13 20:10:49;;;;;;;16.17;11.47;;;8.10;1.00;9.40;93907.00;;;;7392740;19;20524;-78
2022/03/13 20:13:31;;;;;;;16.87;12.03;;;8.20;1.00;9.30;93908.00;;;;7390531;19;20153;-78
2022/03/13 20:16:04;;;;;;;21.50;12.97;;;8.30;1.00;9.20;93956.00;;;;7389457;19;20255;-78
2022/03/13 20:18:37;;;;;;;19.47;13.30;;;8.30;1.00;9.30;93914.00;;;;7390679;19;20121;-77
2022/03/13 20:21:04;;;;;;;20.23;12.80;;;8.30;1.00;9.30;93924.00;;;;7402204;19;20131;-79
2022/03/13 20:23:32;;;;;;;17.33;12.00;;;8.30;1.00;9.10;93929.00;;;;7400292;19;20252;-80
2022/03/13 20:26:06;;;;;;;20.70;11.17;;;8.30;1.00;9.00;93930.00;;;;7403001;19;20656;-80
2022/03/13 20:28:36;;;;;;;15.87;11.80;;;8.20;1.00;9.10;93937.00;;;;7403594;19;20142;-78
2022/03/13 20:31:03;;;;;;;17.87;12.23;;;8.20;1.00;9.20;93904.00;;;;7410862;19;20571;-80
2022/03/13 20:33:38;;;;;;;16.40;11.40;;;8.20;1.00;9.00;93940.00;;;;7405050;19;20148;-79
2022/03/13 20:36:07;;;;;;;17.60;11.80;;;8.20;1.00;9.00;93929.00;;;;7406165;19;20144;-80
2022/03/13 20:38:35;;;;;;;16.53;11.83;;;8.10;1.00;8.90;93937.00;;;;7412074;19;20172;-80
2022/03/13 20:41:09;;;;;;;20.23;11.33;;;8.00;1.00;8.90;93942.00;;;;7407903;19;20232;-79
2022/03/13 20:43:36;;;;;;;21.43;12.57;;;8.00;1.00;8.90;93936.00;;;;7403781;19;20140;-79
2022/03/13 20:46:04;;;;;;;18.13;11.63;;;8.00;1.00;8.80;93960.00;;;;7405196;19;20176;-79
2022/03/13 20:48:38;;;;;;;18.20;11.53;;;7.90;1.00;8.90;93968.00;;;;7404326;19;20153;-80
2022/03/13 20:51:06;;;;;;;14.80;11.53;;;7.90;1.00;8.90;93967.00;;;;7401702;19;20189;-80
2022/03/13 20:53:34;;;;;;;15.23;10.57;;;7.90;1.00;9.00;93930.00;;;;7399069;19;20132;-80
2022/03/13 20:56:10;;;;;;;15.07;10.20;;;8.00;1.00;9.10;93950.00;;;;7400623;19;20148;-79
2022/03/13 20:58:43;;;;;;;14.93;10.67;;;8.00;1.00;9.30;93976.00;;;;7398967;19;20176;-79
2022/03/13 21:01:17;;;;;;;17.70;10.50;;;8.10;1.00;9.20;93975.00;;;;7402104;19;20152;-79
2022/03/13 21:03:45;;;;;;;16.77;10.90;;;8.20;99.90;9.20;93956.00;;;;7400876;19;20161;-79
2022/03/13 21:06:12;;;;;;;14.30;10.10;;;8.20;1.40;9.00;93976.00;;;;7398664;19;20144;-80
2022/03/13 21:08:46;;;;;;;15.00;10.50;;;8.20;1.00;9.30;93979.00;;;;7395865;19;20154;-79
2022/03/13 21:11:17;;;;;;;15.20;10.03;;;8.30;99.90;9.30;93951.00;;;;7401868;19;20132;-80
2022/03/13 21:13:45;;;;;;;21.57;10.43;;;8.30;99.90;9.30;93959.00;;;;7393695;19;20137;-79
2022/03/13 21:16:19;;;;;;;15.60;10.17;;;8.30;1.00;9.30;93971.00;;;;7393849;19;20172;-78
2022/03/13 21:18:47;;;;;;;14.63;10.10;;;8.30;99.90;9.20;93944.00;;;;7392777;19;20164;-79
2022/03/13 21:21:14;;;;;;;12.40;10.00;;;8.30;99.90;9.40;93964.00;;;;7392236;19;20196;-79
2022/03/13 21:23:48;;;;;;;14.13;10.03;;;8.40;99.90;9.30;93958.00;;;;7391249;19;20153;-79
2022/03/13 21:26:15;;;;;;;14.83;10.17;;;8.40;99.90;9.40;93969.00;;;;7395090;19;20164;-79
2022/03/13 21:28:43;;;;;;;16.80;10.87;;;8.40;99.90;9.40;93977.00;;;;7395669;19;20140;-80
2022/03/13 21:31:17;;;;;;;16.40;10.13;;;8.40;99.90;9.50;93964.00;;;;7392065;19;20615;-78
2022/03/13 21:33:44;;;;;;;12.53;9.57;;;8.40;99.90;9.40;93990.00;;;;7393297;19;20603;-79
2022/03/13 21:36:11;;;;;;;13.70;10.00;;;8.40;99.90;9.40;93980.00;;;;7392491;19;20129;-78
2022/03/13 21:38:45;;;;;;;14.70;10.73;;;8.40;99.90;9.40;93985.00;;;;7393718;19;20144;-80
2022/03/13 21:41:12;;;;;;;14.37;10.10;;;8.40;99.90;9.30;93961.00;;;;7394229;19;20129;-79
2022/03/13 21:43:39;;;;;;;16.30;10.07;;;8.30;99.90;9.20;93967.00;;;;7393170;19;20141;-79
2022/03/13 21:46:13;;;;;;;15.97;10.30;;;8.30;99.90;9.20;93968.00;;;;7393889;19;20702;-79
2022/03/13 21:48:40;;;;;;;19.27;10.83;;;8.20;99.90;9.10;94002.00;;;;7392198;19;20436;-80
2022/03/13 21:51:08;;;;;;;17.77;10.50;;;8.20;99.90;9.20;93968.00;;;;7392026;19;20141;-80
2022/03/13 21:53:42;;;;;;;14.80;10.50;;;8.30;99.90;9.20;93996.00;;;;7393712;19;20125;-79
2022/03/13 21:56:30;;;;;;;16.93;10.73;;;8.20;99.90;9.00;94007.00;;;;7396297;19;20524;-79
2022/03/13 21:59:12;;;;;;;16.53;10.37;;;8.20;1.00;9.10;93989.00;;;;7397127;19;20136;-79
2022/03/13 22:01:39;;;;;;;17.10;10.77;;;8.20;1.40;9.10;93980.00;;;;7394072;19;20136;-79
2022/03/13 22:04:13;;;;;;;15.30;10.23;;;8.10;1.00;9.10;93988.00;;;;7393219;19;20148;-80
2022/03/13 22:06:40;;;;;;;14.37;9.57;;;8.10;1.00;9.00;94004.00;;;;7391077;19;20140;-80
2022/03/13 22:09:09;;;;;;;15.60;10.40;;;8.10;1.00;9.10;93985.00;;;;7391455;19;20135;-78
2022/03/13 22:11:44;;;;;;;13.43;9.77;;;8.00;1.00;9.10;94010.00;;;;7390766;19;20124;-80
2022/03/13 22:14:15;;;;;;;17.13;10.63;;;8.10;1.00;9.20;94007.00;;;;7391901;19;20603;-78
2022/03/13 22:16:50;;;;;;;14.93;10.40;;;8.10;1.00;9.00;93979.00;;;;7390278;19;20151;-78
2022/03/13 22:19:18;;;;;;;14.60;10.40;;;8.20;1.00;9.10;94001.00;;;;7391600;19;20137;-78
2022/03/13 22:21:45;;;;;;;14.17;10.10;;;8.10;99.90;9.00;93990.00;;;;7395351;19;20636;-79
2022/03/13 22:24:21;;;;;;;14.00;10.30;;;8.20;99.90;9.10;93987.00;;;;7397205;19;20143;-78
2022/03/13 22:26:48;;;;;;;15.60;10.00;;;8.20;1.00;9.10;94001.00;;;;7395940;19;20631;-78
2022/03/13 22:29:19;;;;;;;13.97;9.97;;;8.10;1.00;9.10;93986.00;;;;7395152;19;20155;-79
2022/03/13 22:31:53;;;;;;;16.17;9.93;;;8.10;1.00;9.10;93992.00;;;;7394145;19;20165;-78
2022/03/13 22:34:38;;;;;;;13.87;10.17;;;8.20;1.00;9.20;93970.00;;;;7394715;19;21098;-78
2022/03/13 22:37:13;;;;;;;16.23;10.03;;;8.10;1.00;9.10;93983.00;;;;7396081;19;20125;-78
2022/03/13 22:39:41;;;;;;;14.83;10.37;;;8.10;1.00;9.10;93975.00;;;;7392523;19;20160;-77
2022/03/13 22:42:08;;;;;;;13.30;9.60;;;8.10;1.00;9.10;94004.00;;;;7394670;19;20527;-78
2022/03/13 22:44:42;;;;;;;14.20;10.30;;;8.10;1.00;8.90;93982.00;;;;7396847;19;20129;-79
2022/03/13 22:47:11;;;;;;;15.27;10.20;;;8.00;1.00;9.00;93994.00;;;;7393552;19;20117;-78
2022/03/13 22:49:39;;;;;;;14.97;10.20;;;8.00;1.00;9.10;94010.00;;;;7396840;19;20137;-78
2022/03/13 22:52:13;;;;;;;15.60;9.77;;;8.00;1.00;9.00;94020.00;;;;7396432;19;20141;-78
2022/03/13 22:54:41;;;;;;;17.30;10.37;;;8.00;1.00;8.90;93985.00;;;;7393554;19;20141;-79
2022/03/13 22:57:10;;;;;;;14.70;9.97;;;8.00;1.00;8.90;93991.00;;;;7396777;19;20180;-79
2022/03/13 23:00:07;;;;;;;13.93;9.97;;;7.90;1.00;8.70;94022.00;;;;7392669;19;20133;-78
2022/03/13 23:02:34;;;;;;;14.17;9.57;;;7.80;1.00;8.50;94022.00;;;;7397611;19;20117;-78
2022/03/13 23:05:10;;;;;;;14.20;9.20;;;7.70;1.00;8.30;94010.00;;;;7396337;19;20588;-79
2022/03/13 23:07:38;;;;;;;15.77;9.00;;;7.60;1.00;8.30;93996.00;;;;7397506;19;20141;-79
2022/03/13 23:10:08;;;;;;;14.23;9.73;;;7.40;1.00;8.20;94004.00;;;;7395157;19;20148;-78
2022/03/13 23:12:42;;;;;;;14.57;10.47;;;7.40;1.00;8.10;94006.00;;;;7397656;19;20144;-78
2022/03/13 23:15:11;;;;;;;15.63;9.13;;;7.30;1.00;8.10;94031.00;;;;7395783;19;20713;-78
2022/03/13 23:17:39;;;;;;;13.83;9.47;;;7.20;1.00;8.10;94006.00;;;;7396217;19;20141;-79
2022/03/13 23:20:14;;;;;;;16.53;9.93;;;7.20;1.00;8.50;94013.00;;;;7394462;19;20136;-78
2022/03/13 23:22:42;;;;;;;13.03;10.00;;;7.30;1.00;8.30;94030.00;;;;7395360;19;20723;-78
2022/03/13 23:25:09;;;;;;;18.77;10.07;;;7.30;1.00;8.20;94035.00;;;;7394336;19;20144;-79
2022/03/13 23:27:43;;;;;;;13.00;9.13;;;7.30;1.00;8.20;94048.00;;;;7396001;19;20148;-79
2022/03/13 23:30:11;;;;;;;15.73;10.00;;;7.30;1.00;8.30;94034.00;;;;7394591;19;20132;-78
2022/03/13 23:32:41;;;;;;;16.37;9.33;;;7.30;1.00;8.50;94045.00;;;;7395078;19;20145;-79
2022/03/13 23:35:15;;;;;;;12.67;9.60;;;7.40;1.00;8.40;94054.00;;;;7395552;19;20168;-79
2022/03/13 23:37:45;;;;;;;14.80;10.07;;;7.40;1.00;8.50;94058.00;;;;7395871;19;20141;-79
2022/03/13 23:40:12;;;;;;;14.43;9.23;;;7.50;1.00;8.30;94057.00;;;;7393393;19;20133;-79
2022/03/13 23:42:48;;;;;;;11.83;9.33;;;7.40;1.00;8.30;94047.00;;;;7396246;19;20612;-78
2022/03/13 23:45:15;;;;;;;15.70;9.43;;;7.50;1.00;8.50;94074.00;;;;7403786;19;20140;-80
2022/03/13 23:47:42;;;;;;;13.87;9.50;;;7.50;1.00;8.50;94048.00;;;;7404310;19;20122;-80
2022/03/13 23:50:16;;;;;;;12.90;8.97;;;7.50;1.00;8.30;94064.00;;;;7402650;19;20144;-80
2022/03/13 23:52:43;;;;;;;13.93;9.27;;;7.50;1.00;8.30;94063.00;;;;7404752;19;20583;-79
2022/03/13 23:55:10;;;;;;;13.90;10.10;;;7.40;1.00;8.50;94087.00;;;;7404297;19;20456;-79
2022/03/13 23:57:51;;;;;;;16.97;11.10;;;7.50;1.00;8.50;94078.00;;;;7403743;19;20173;-80
